< Typhoon 196604 1966 Season Typhoon 196606 >
Typhoon 196605 (LOLA)
General InformationTrack Information on Google Maps || Disaster Info.ResourceGoogle EarthGE AnimationAtom FeedGeoJSON
Detalied Best Track (Time Zone = UTC)
Year Month Day Hour Lat. Long. Pressure (hPa) Wind (kt) Class Image Chart
1966 7 8 06 11.0 127.0 1006 0 2 -- Chart
1966 7 8 12 11.0 128.5 1007 0 2 -- Chart
1966 7 8 18 11.2 130.1 1008 0 2 -- Chart
1966 7 9 00 12.0 130.9 1008 0 2 -- Chart
1966 7 9 06 12.4 130.4 1006 0 2 -- Chart
1966 7 9 12 12.7 129.7 1006 0 2 -- Chart
1966 7 9 18 12.9 129.2 1006 0 2 -- Chart
1966 7 10 00 13.0 128.6 1006 0 2 -- Chart
1966 7 10 06 13.5 128.0 1006 0 2 -- Chart
1966 7 10 12 13.9 126.9 1006 0 2 -- Chart
1966 7 10 18 14.0 125.6 1004 0 2 -- Chart
1966 7 11 00 15.0 125.0 1002 0 2 -- Chart
1966 7 11 06 15.8 123.7 1000 0 2 -- Chart
1966 7 11 12 17.0 122.5 1000 0 2 -- Chart
1966 7 11 18 18.4 120.4 1002 0 2 -- Chart
1966 7 12 00 18.6 119.0 1002 0 2 -- Chart
1966 7 12 06 18.5 118.0 1002 0 2 -- Chart
1966 7 12 12 19.0 117.5 1000 0 2 -- Chart
1966 7 12 18 20.5 116.8 996 0 2 -- Chart
1966 7 13 00 21.0 115.8 994 0 9 -- Chart
1966 7 13 06 21.4 114.9 994 0 9 -- Chart
1966 7 13 12 22.2 114.1 990 0 9 -- Chart
1966 7 13 18 23.0 113.5 996 0 9 -- Chart
1966 7 14 00 24.0 112.1 1002 0 2 -- Chart
1966 7 14 06 27.0 110.5 1000 0 2 -- Chart
Japan Meteorological Agency Best Track Data | Correction Date : 1989-06-01
< Typhoon 196604 1966 Season Typhoon 196606 >

Help